createdAt,value
2023-02-02T00:01:20.833Z,3.47
2023-02-02T00:03:50.760Z,2.70
2023-02-02T00:06:18.256Z,3.43
2023-02-02T00:08:45.373Z,3.50
2023-02-02T00:11:12.455Z,3.83
2023-02-02T00:13:41.204Z,3.63
2023-02-02T00:16:40.701Z,4.43
2023-02-02T00:19:10.484Z,6.07
2023-02-02T00:21:38.226Z,3.57
2023-02-02T00:24:06.166Z,5.10
2023-02-02T00:26:33.531Z,5.20
2023-02-02T00:29:02.432Z,3.93
2023-02-02T00:31:29.334Z,2.07
2023-02-02T00:33:56.452Z,2.47
2023-02-02T00:36:23.453Z,3.10
2023-02-02T00:38:51.364Z,3.17
2023-02-02T00:41:18.660Z,2.50
2023-02-02T00:44:05.843Z,2.00
2023-02-02T00:46:34.382Z,2.43
2023-02-02T00:49:01.306Z,2.40
2023-02-02T00:51:28.267Z,2.40
2023-02-02T00:53:55.157Z,2.50
2023-02-02T00:56:22.105Z,1.97
2023-02-02T00:58:49.161Z,1.90
2023-02-02T01:01:17.094Z,1.97
2023-02-02T01:03:46.540Z,2.10
2023-02-02T01:06:13.578Z,2.03
2023-02-02T01:08:40.582Z,1.90
2023-02-02T01:11:08.170Z,1.60
2023-02-02T01:13:35.554Z,1.90
2023-02-02T01:16:03.978Z,1.70
2023-02-02T01:18:31.506Z,1.80
2023-02-02T01:21:00.919Z,1.83
2023-02-02T01:23:28.205Z,1.60
2023-02-02T01:25:55.120Z,1.70
2023-02-02T01:28:22.743Z,1.90
2023-02-02T01:30:49.864Z,1.50
2023-02-02T01:33:17.446Z,1.93
2023-02-02T01:35:47.846Z,2.00
2023-02-02T01:38:17.933Z,2.10
2023-02-02T01:40:46.182Z,1.80
2023-02-02T01:43:22.415Z,2.00
2023-02-02T01:45:49.713Z,2.03
2023-02-02T01:48:18.250Z,2.10
2023-02-02T01:50:45.838Z,3.07
2023-02-02T01:53:12.699Z,2.87
2023-02-02T01:55:42.241Z,2.23
2023-02-02T01:58:15.117Z,6.17
2023-02-02T02:00:45.595Z,1.80
2023-02-02T02:03:16.847Z,1.87
2023-02-02T02:05:48.100Z,1.57
2023-02-02T02:08:18.688Z,2.23
2023-02-02T02:10:47.724Z,1.80
2023-02-02T02:13:15.344Z,1.97
2023-02-02T02:16:07.979Z,1.73
2023-02-02T02:18:45.899Z,1.90
2023-02-02T02:21:57.619Z,1.60
2023-02-02T02:25:22.617Z,2.27
2023-02-02T02:28:23.320Z,2.00
2023-02-02T02:31:21.154Z,1.60
2023-02-02T02:33:55.933Z,1.60
2023-02-02T02:36:32.656Z,2.13
2023-02-02T02:39:07.848Z,2.00
2023-02-02T02:41:41.972Z,1.93
2023-02-02T02:44:12.355Z,2.20
2023-02-02T02:46:39.449Z,1.70
2023-02-02T02:49:10.960Z,1.50
2023-02-02T02:51:49.130Z,1.80
2023-02-02T02:54:30.982Z,1.40
2023-02-02T02:57:26.235Z,1.67
2023-02-02T03:00:02.716Z,1.43
2023-02-02T03:02:40.892Z,1.60
2023-02-02T03:05:22.373Z,1.10
2023-02-02T03:07:56.031Z,1.30
2023-02-02T03:10:26.724Z,1.50
2023-02-02T03:12:54.406Z,1.20
2023-02-02T03:15:21.299Z,1.40
2023-02-02T03:17:50.022Z,1.00
2023-02-02T03:20:18.591Z,1.80
2023-02-02T03:22:45.537Z,1.10
2023-02-02T03:25:12.452Z,1.40
2023-02-02T03:27:39.870Z,2.40
2023-02-02T03:30:10.412Z,2.90
2023-02-02T03:32:37.725Z,1.00
2023-02-02T03:35:05.483Z,2.67
2023-02-02T03:37:33.778Z,1.50
2023-02-02T03:40:00.682Z,0.93
2023-02-02T03:42:27.584Z,1.10
2023-02-02T03:44:54.440Z,1.20
2023-02-02T03:47:21.321Z,0.90
2023-02-02T03:49:48.216Z,1.30
2023-02-02T03:52:15.054Z,1.10
2023-02-02T03:54:43.284Z,1.40
2023-02-02T03:57:10.100Z,1.17
2023-02-02T03:59:36.981Z,1.20
2023-02-02T04:02:03.945Z,1.10
2023-02-02T04:04:30.777Z,1.10
2023-02-02T04:06:58.713Z,1.30
2023-02-02T04:09:25.690Z,2.57
2023-02-02T04:11:54.077Z,2.13
2023-02-02T04:14:20.997Z,3.37
2023-02-02T04:16:47.806Z,1.63
2023-02-02T04:19:14.672Z,1.07
2023-02-02T04:21:41.729Z,1.70
2023-02-02T04:24:12.140Z,2.03
2023-02-02T04:26:39.274Z,1.60
2023-02-02T04:29:07.564Z,0.87
2023-02-02T04:31:34.496Z,1.07
2023-02-02T04:34:02.270Z,1.10
2023-02-02T04:36:29.186Z,0.87
2023-02-02T04:38:56.313Z,1.20
2023-02-02T04:41:23.532Z,1.00
2023-02-02T04:43:50.497Z,1.00
2023-02-02T04:46:19.081Z,1.10
2023-02-02T04:48:48.754Z,0.93
2023-02-02T04:51:16.164Z,0.90
2023-02-02T04:53:43.043Z,0.90
2023-02-02T04:56:12.953Z,1.33
2023-02-02T04:58:39.948Z,1.03
2023-02-02T05:01:11.087Z,0.80
2023-02-02T05:03:39.530Z,1.00
2023-02-02T05:06:06.907Z,1.10
2023-02-02T05:08:34.431Z,1.00
2023-02-02T05:11:05.577Z,0.80
2023-02-02T05:13:32.446Z,1.00
2023-02-02T05:15:59.265Z,1.07
2023-02-02T05:18:26.253Z,0.73
2023-02-02T05:20:54.993Z,1.37
2023-02-02T05:23:21.842Z,0.93
2023-02-02T05:25:52.153Z,1.20
2023-02-02T05:28:19.193Z,1.20
2023-02-02T05:30:46.137Z,1.07
2023-02-02T05:33:13.075Z,1.30
2023-02-02T05:35:39.914Z,1.43
2023-02-02T05:38:08.094Z,1.40
2023-02-02T05:40:34.981Z,1.20
2023-02-02T05:43:01.870Z,1.13
2023-02-02T05:45:28.761Z,1.17
2023-02-02T05:47:55.993Z,1.07
2023-02-02T05:50:22.952Z,1.07
2023-02-02T05:53:02.356Z,1.10
2023-02-02T05:55:30.545Z,1.50
2023-02-02T05:57:57.360Z,1.30
2023-02-02T06:00:24.457Z,1.30
2023-02-02T06:02:51.311Z,1.10
2023-02-02T06:05:18.207Z,1.10
2023-02-02T06:07:45.046Z,0.97
2023-02-02T06:10:11.949Z,1.30
2023-02-02T06:12:40.215Z,1.10
2023-02-02T06:15:08.290Z,1.10
2023-02-02T06:17:35.190Z,1.20
2023-02-02T06:20:02.136Z,1.10
2023-02-02T06:22:30.643Z,1.30
2023-02-02T06:24:58.723Z,1.30
2023-02-02T06:27:25.685Z,1.30
2023-02-02T06:29:53.879Z,1.10
2023-02-02T06:32:20.717Z,1.20
2023-02-02T06:34:47.554Z,1.30
2023-02-02T06:37:14.431Z,1.47
2023-02-02T06:39:41.272Z,1.10
2023-02-02T06:42:20.382Z,1.50
2023-02-02T06:44:48.053Z,1.10
2023-02-02T06:47:16.541Z,1.40
2023-02-02T06:49:43.441Z,1.10
2023-02-02T06:52:11.341Z,0.80
2023-02-02T06:54:38.203Z,0.83
2023-02-02T06:57:05.057Z,1.60
2023-02-02T06:59:31.910Z,1.37
2023-02-02T07:01:58.786Z,1.10
2023-02-02T07:04:27.018Z,0.90
2023-02-02T07:06:53.853Z,1.10
2023-02-02T07:09:20.653Z,1.23
2023-02-02T07:11:47.539Z,1.43
2023-02-02T07:14:14.567Z,1.53
2023-02-02T07:16:41.419Z,1.17
2023-02-02T07:19:08.520Z,1.10
2023-02-02T07:21:36.743Z,1.20
2023-02-02T07:24:05.263Z,1.60
2023-02-02T07:26:34.046Z,1.20
2023-02-02T07:29:01.355Z,1.37
2023-02-02T07:31:29.085Z,1.50
2023-02-02T07:33:56.136Z,1.37
2023-02-02T07:36:24.700Z,1.23
2023-02-02T07:38:54.670Z,1.90
2023-02-02T07:41:22.251Z,1.37
2023-02-02T07:43:49.957Z,1.70
2023-02-02T07:46:18.138Z,1.60
2023-02-02T07:48:45.182Z,1.50
2023-02-02T07:51:15.922Z,1.80
2023-02-02T07:53:44.949Z,1.63
2023-02-02T07:56:15.087Z,1.97
2023-02-02T07:58:42.875Z,2.00
2023-02-02T08:01:11.478Z,2.63
2023-02-02T08:03:39.399Z,2.40
2023-02-02T08:06:12.282Z,4.47
2023-02-02T08:08:39.210Z,2.57
2023-02-02T08:11:09.111Z,1.97
2023-02-02T08:13:37.345Z,3.00
2023-02-02T08:16:05.177Z,2.57
2023-02-02T08:18:32.545Z,1.97
2023-02-02T08:20:59.927Z,2.30
2023-02-02T08:23:27.048Z,1.77
2023-02-02T08:25:54.495Z,1.70
2023-02-02T08:28:21.668Z,2.30
2023-02-02T08:30:49.867Z,2.00
2023-02-02T08:33:16.744Z,2.37
2023-02-02T08:35:44.349Z,3.03
2023-02-02T08:38:11.241Z,2.83
2023-02-02T08:40:38.165Z,2.70
2023-02-02T08:43:05.699Z,2.33
2023-02-02T08:46:04.053Z,2.23
2023-02-02T08:48:23.542Z,2.40
2023-02-02T08:50:54.529Z,2.27
2023-02-02T08:53:21.545Z,2.40
2023-02-02T08:55:48.791Z,2.30
2023-02-02T08:58:15.631Z,2.60
2023-02-02T09:00:42.622Z,2.37
2023-02-02T09:03:09.523Z,5.13
2023-02-02T09:05:38.519Z,1.80
2023-02-02T09:08:05.953Z,2.57
2023-02-02T09:10:35.591Z,2.20
2023-02-02T09:13:03.670Z,3.60
2023-02-02T09:15:31.121Z,2.90
2023-02-02T09:17:58.015Z,3.03
2023-02-02T09:20:24.889Z,2.43
2023-02-02T09:22:55.224Z,3.10
2023-02-02T09:25:22.363Z,2.73
2023-02-02T09:27:49.304Z,2.77
2023-02-02T09:30:16.619Z,3.10
2023-02-02T09:32:43.582Z,3.10
2023-02-02T09:35:10.524Z,2.47
2023-02-02T09:37:38.433Z,2.40
2023-02-02T09:40:08.204Z,2.30
2023-02-02T09:43:01.705Z,2.40
2023-02-02T09:45:35.228Z,2.00
2023-02-02T09:48:15.117Z,2.50
2023-02-02T09:50:46.642Z,1.83
2023-02-02T09:53:23.622Z,1.93
2023-02-02T09:55:54.285Z,2.23
2023-02-02T09:58:24.125Z,2.00
2023-02-02T10:00:56.699Z,2.60
2023-02-02T10:03:31.078Z,2.73
2023-02-02T10:06:04.522Z,2.30
2023-02-02T10:08:36.448Z,2.40
2023-02-02T10:11:16.969Z,1.87
2023-02-02T10:13:45.544Z,2.40
2023-02-02T10:16:17.382Z,2.07
2023-02-02T10:18:51.703Z,2.03
2023-02-02T10:21:26.932Z,2.10
2023-02-02T10:23:54.625Z,1.73
2023-02-02T10:26:26.348Z,1.90
2023-02-02T10:29:07.221Z,2.00
2023-02-02T10:31:42.634Z,2.13
2023-02-02T10:34:16.358Z,1.83
2023-02-02T10:36:56.189Z,2.00
2023-02-02T10:39:31.884Z,1.90
2023-02-02T10:42:10.874Z,2.03
2023-02-02T10:44:43.421Z,2.40
2023-02-02T10:47:15.124Z,1.97
2023-02-02T10:49:42.081Z,1.77
2023-02-02T10:52:17.010Z,2.67
2023-02-02T10:54:58.145Z,2.10
2023-02-02T10:57:50.439Z,1.90
2023-02-02T11:00:23.251Z,1.80
2023-02-02T11:02:51.764Z,1.90
2023-02-02T11:05:40.601Z,2.10
2023-02-02T11:08:14.511Z,2.37
2023-02-02T11:10:42.380Z,2.20
2023-02-02T11:13:15.747Z,2.57
2023-02-02T11:15:42.780Z,2.73
2023-02-02T11:18:28.441Z,2.00
2023-02-02T11:20:55.967Z,2.13
2023-02-02T11:23:25.299Z,1.70
2023-02-02T11:26:00.682Z,1.63
2023-02-02T11:28:34.193Z,1.77
2023-02-02T11:31:01.808Z,2.30
2023-02-02T11:33:30.787Z,2.23
2023-02-02T11:35:59.599Z,2.20
2023-02-02T11:38:27.559Z,1.90
2023-02-02T11:40:58.568Z,1.87
2023-02-02T11:43:30.808Z,1.90
2023-02-02T11:46:02.880Z,1.87
2023-02-02T11:48:33.622Z,1.90
2023-02-02T11:51:02.059Z,1.87
2023-02-02T11:53:31.995Z,1.83
2023-02-02T11:56:03.708Z,2.10
2023-02-02T11:58:43.932Z,2.80
2023-02-02T12:01:24.767Z,2.40
2023-02-02T12:03:53.562Z,2.90
2023-02-02T12:06:22.648Z,2.53
2023-02-02T12:08:50.173Z,2.03
2023-02-02T12:11:31.460Z,2.23
2023-02-02T12:14:12.184Z,2.17
2023-02-02T12:17:01.688Z,2.00
2023-02-02T12:19:46.008Z,2.07
2023-02-02T12:22:27.764Z,2.03
2023-02-02T12:25:00.683Z,2.13
2023-02-02T12:27:39.496Z,2.13
2023-02-02T12:30:23.016Z,2.10
2023-02-02T12:33:01.684Z,2.23
2023-02-02T12:35:43.459Z,2.40
2023-02-02T12:38:19.637Z,2.30
2023-02-02T12:41:14.517Z,2.33
2023-02-02T12:43:44.059Z,2.17
2023-02-02T12:46:30.968Z,2.00
2023-02-02T12:49:13.106Z,2.10
2023-02-02T12:51:55.809Z,2.17
2023-02-02T12:54:59.394Z,2.00
2023-02-02T12:57:38.553Z,2.20
2023-02-02T13:00:24.121Z,1.87
2023-02-02T13:03:04.623Z,1.77
2023-02-02T13:05:54.295Z,1.80
2023-02-02T13:08:26.223Z,2.10
2023-02-02T13:11:00.350Z,1.70
2023-02-02T13:13:31.493Z,1.97
2023-02-02T13:16:05.737Z,1.70
2023-02-02T13:18:37.769Z,2.07
2023-02-02T13:21:08.416Z,1.90
2023-02-02T13:23:37.365Z,2.00
2023-02-02T13:26:07.418Z,1.50
2023-02-02T13:28:40.041Z,2.10
2023-02-02T13:31:13.997Z,1.53
2023-02-02T13:33:44.690Z,1.50
2023-02-02T13:36:19.345Z,1.50
2023-02-02T13:38:46.348Z,1.50
2023-02-02T13:41:14.183Z,1.33
2023-02-02T13:43:48.342Z,1.57
2023-02-02T13:46:28.795Z,1.50
2023-02-02T13:49:03.457Z,1.80
2023-02-02T13:51:44.339Z,1.77
2023-02-02T13:55:01.847Z,2.00
2023-02-02T13:57:43.158Z,1.70
2023-02-02T14:00:16.932Z,1.80
2023-02-02T14:02:46.904Z,1.53
2023-02-02T14:05:25.907Z,1.80
2023-02-02T14:08:01.904Z,2.03
2023-02-02T14:10:32.653Z,1.50
2023-02-02T14:13:29.441Z,1.73
2023-02-02T14:15:58.932Z,2.80
2023-02-02T14:18:57.416Z,2.30
2023-02-02T14:22:00.987Z,2.13
2023-02-02T14:24:48.599Z,2.23
2023-02-02T14:27:54.785Z,2.30
2023-02-02T14:30:25.934Z,2.23
2023-02-02T14:32:53.129Z,2.20
2023-02-02T14:35:59.259Z,2.37
2023-02-02T14:38:56.672Z,1.70
2023-02-02T14:41:51.332Z,1.80
2023-02-02T14:44:18.308Z,1.70
2023-02-02T14:46:49.076Z,1.90
2023-02-02T14:49:24.451Z,1.57
2023-02-02T14:51:58.980Z,1.60
2023-02-02T14:54:35.887Z,1.63
2023-02-02T14:57:06.042Z,1.70
2023-02-02T14:59:36.024Z,1.53
2023-02-02T15:02:14.642Z,1.57
2023-02-02T15:04:42.067Z,1.70
2023-02-02T15:07:37.833Z,1.60
2023-02-02T15:10:10.173Z,1.60
2023-02-02T15:12:40.571Z,1.50
2023-02-02T15:15:17.525Z,1.47
2023-02-02T15:18:00.724Z,1.30
2023-02-02T15:20:32.101Z,1.47
2023-02-02T15:23:04.279Z,1.27
2023-02-02T15:25:36.081Z,1.60
2023-02-02T15:28:11.384Z,1.57
2023-02-02T15:30:44.088Z,1.87
2023-02-02T15:33:23.331Z,1.70
2023-02-02T15:35:52.387Z,1.47
2023-02-02T15:38:21.462Z,1.80
2023-02-02T15:40:50.398Z,1.63
2023-02-02T15:43:18.423Z,1.70
2023-02-02T15:45:48.753Z,1.80
2023-02-02T15:48:21.435Z,1.60
2023-02-02T15:50:54.534Z,1.90
2023-02-02T15:53:25.060Z,1.70
2023-02-02T15:55:54.159Z,1.70
2023-02-02T15:58:30.002Z,2.10
2023-02-02T16:01:03.114Z,1.73
2023-02-02T16:03:46.215Z,2.07
2023-02-02T16:06:13.213Z,2.10
2023-02-02T16:08:41.333Z,2.13
2023-02-02T16:11:12.266Z,1.97
2023-02-02T16:13:40.412Z,1.60
2023-02-02T16:16:24.058Z,2.03
2023-02-02T16:19:11.681Z,1.80
2023-02-02T16:21:44.319Z,1.70
2023-02-02T16:24:15.402Z,1.97
2023-02-02T16:26:43.874Z,2.03
2023-02-02T16:29:16.896Z,2.30
2023-02-02T16:31:45.054Z,2.40
2023-02-02T16:34:16.405Z,2.10
2023-02-02T16:36:43.462Z,1.93
2023-02-02T16:39:16.527Z,1.93
2023-02-02T16:41:49.077Z,1.87
2023-02-02T16:44:30.790Z,2.00
2023-02-02T16:46:58.974Z,1.93
2023-02-02T16:49:27.372Z,1.80
2023-02-02T16:52:15.156Z,1.50
2023-02-02T16:54:51.513Z,2.10
2023-02-02T16:57:22.879Z,1.57
2023-02-02T16:59:52.696Z,1.60
2023-02-02T17:02:25.328Z,1.70
2023-02-02T17:04:58.425Z,1.63
2023-02-02T17:07:26.252Z,1.50
2023-02-02T17:10:12.572Z,1.97
2023-02-02T17:12:40.898Z,1.87
2023-02-02T17:15:28.880Z,1.90
2023-02-02T17:17:56.088Z,2.00
2023-02-02T17:20:23.324Z,1.63
2023-02-02T17:22:53.292Z,1.70
2023-02-02T17:25:27.116Z,1.53
2023-02-02T17:27:56.878Z,1.50
2023-02-02T17:30:24.121Z,1.90
2023-02-02T17:32:50.975Z,1.60
2023-02-02T17:35:19.957Z,1.50
2023-02-02T17:37:47.201Z,1.20
2023-02-02T17:40:14.744Z,1.93
2023-02-02T17:42:43.086Z,1.40
2023-02-02T17:45:17.624Z,1.77
2023-02-02T17:47:44.888Z,1.33
2023-02-02T17:50:12.036Z,2.30
2023-02-02T17:52:39.019Z,2.43
2023-02-02T17:55:12.548Z,2.33
2023-02-02T17:57:39.501Z,1.60
2023-02-02T18:00:08.110Z,2.50
2023-02-02T18:02:36.402Z,2.37
2023-02-02T18:05:03.479Z,1.80
2023-02-02T18:07:30.358Z,1.83
2023-02-02T18:09:57.246Z,1.63
2023-02-02T18:12:24.331Z,1.60
2023-02-02T18:14:51.180Z,1.40
2023-02-02T18:17:18.064Z,1.10
2023-02-02T18:19:47.232Z,1.10
2023-02-02T18:22:14.061Z,1.23
2023-02-02T18:24:41.204Z,1.10
2023-02-02T18:27:08.363Z,1.60
2023-02-02T18:29:35.522Z,1.20
2023-02-02T18:32:03.175Z,1.20
2023-02-02T18:34:31.062Z,1.30
2023-02-02T18:36:59.802Z,0.97
2023-02-02T18:39:26.717Z,1.40
2023-02-02T18:41:53.727Z,1.60
2023-02-02T18:44:20.646Z,0.90
2023-02-02T18:46:47.677Z,1.00
2023-02-02T18:49:14.552Z,1.17
2023-02-02T18:51:41.895Z,1.10
2023-02-02T18:54:11.244Z,0.97
2023-02-02T18:56:38.290Z,1.30
2023-02-02T18:59:06.734Z,1.20
2023-02-02T19:01:34.373Z,1.30
2023-02-02T19:04:01.388Z,1.33
2023-02-02T19:06:47.162Z,1.30
2023-02-02T19:09:17.168Z,1.90
2023-02-02T19:11:46.383Z,1.90
2023-02-02T19:14:15.263Z,1.70
2023-02-02T19:16:43.734Z,1.50
2023-02-02T19:19:21.744Z,1.30
2023-02-02T19:21:48.916Z,1.23
2023-02-02T19:24:17.057Z,1.60
2023-02-02T19:26:46.892Z,1.13
2023-02-02T19:29:18.224Z,1.33
2023-02-02T19:31:45.860Z,1.47
2023-02-02T19:34:18.043Z,3.37
2023-02-02T19:36:46.864Z,2.13
2023-02-02T19:39:19.816Z,1.77
2023-02-02T19:41:47.171Z,2.00
2023-02-02T19:44:19.303Z,1.40
2023-02-02T19:46:48.393Z,1.90
2023-02-02T19:49:22.970Z,1.70
2023-02-02T19:51:52.489Z,1.23
2023-02-02T19:54:33.901Z,1.00
2023-02-02T19:57:05.739Z,1.40
2023-02-02T19:59:35.320Z,1.00
2023-02-02T20:02:24.917Z,1.00
2023-02-02T20:04:58.233Z,0.90
2023-02-02T20:07:25.069Z,1.07
2023-02-02T20:09:53.317Z,1.10
2023-02-02T20:12:27.728Z,1.33
2023-02-02T20:14:56.296Z,1.27
2023-02-02T20:17:28.865Z,1.70
2023-02-02T20:19:56.107Z,2.00
2023-02-02T20:22:28.140Z,1.70
2023-02-02T20:24:57.246Z,1.10
2023-02-02T20:27:26.663Z,0.90
2023-02-02T20:29:55.344Z,1.00
2023-02-02T20:32:26.514Z,1.13
2023-02-02T20:34:55.091Z,1.07
2023-02-02T20:37:24.288Z,0.97
2023-02-02T20:39:54.612Z,1.10
2023-02-02T20:42:23.219Z,1.17
2023-02-02T20:44:50.941Z,1.10
2023-02-02T20:47:18.324Z,0.93
2023-02-02T20:49:45.648Z,1.20
2023-02-02T20:52:21.339Z,0.90
2023-02-02T20:54:48.288Z,1.10
2023-02-02T20:57:15.679Z,1.47
2023-02-02T20:59:44.181Z,1.30
2023-02-02T21:02:18.756Z,2.00
2023-02-02T21:04:47.165Z,1.67
2023-02-02T21:07:14.836Z,1.30
2023-02-02T21:09:41.645Z,0.87
2023-02-02T21:12:08.555Z,1.23
2023-02-02T21:14:35.394Z,1.00
2023-02-02T21:17:14.485Z,1.30
2023-02-02T21:19:42.527Z,1.47
2023-02-02T21:22:09.811Z,1.30
2023-02-02T21:24:36.667Z,1.40
2023-02-02T21:27:04.658Z,1.20
2023-02-02T21:29:31.995Z,1.30
2023-02-02T21:32:01.403Z,1.20
2023-02-02T21:34:30.657Z,1.03
2023-02-02T21:36:58.520Z,3.43
2023-02-02T21:39:29.244Z,2.10
2023-02-02T21:42:10.703Z,1.30
2023-02-02T21:44:39.614Z,1.60
2023-02-02T21:47:31.305Z,1.30
2023-02-02T21:50:10.239Z,1.40
2023-02-02T21:52:37.057Z,1.57
2023-02-02T21:55:27.985Z,1.67
2023-02-02T21:57:57.987Z,1.50
2023-02-02T22:00:28.769Z,1.17
2023-02-02T22:02:55.848Z,1.20
2023-02-02T22:05:27.437Z,1.30
2023-02-02T22:07:57.673Z,1.07
2023-02-02T22:10:37.014Z,1.20
2023-02-02T22:13:16.336Z,1.03
2023-02-02T22:15:47.235Z,1.47
2023-02-02T22:18:17.535Z,1.30
2023-02-02T22:20:48.659Z,1.27
2023-02-02T22:23:18.121Z,1.50
2023-02-02T22:25:47.375Z,1.50
2023-02-02T22:28:19.716Z,1.40
2023-02-02T22:30:47.177Z,1.20
2023-02-02T22:33:14.728Z,1.50
2023-02-02T22:35:42.264Z,1.57
2023-02-02T22:38:18.142Z,1.37
2023-02-02T22:40:45.088Z,1.60
2023-02-02T22:43:13.370Z,1.70
2023-02-02T22:45:40.367Z,1.50
2023-02-02T22:48:07.265Z,1.43
2023-02-02T22:50:35.154Z,1.40
2023-02-02T22:53:02.410Z,1.30
2023-02-02T22:55:31.382Z,1.20
2023-02-02T22:57:58.382Z,1.40
2023-02-02T23:00:27.421Z,1.10
2023-02-02T23:02:55.632Z,1.40
2023-02-02T23:05:23.864Z,1.00
2023-02-02T23:07:51.132Z,0.97
2023-02-02T23:10:19.291Z,1.37
2023-02-02T23:12:48.496Z,1.17
2023-02-02T23:15:16.338Z,1.03
2023-02-02T23:17:43.290Z,0.90
2023-02-02T23:20:12.693Z,0.70
2023-02-02T23:22:40.038Z,0.90
2023-02-02T23:25:07.264Z,0.90
2023-02-02T23:27:34.215Z,1.00
2023-02-02T23:30:02.555Z,1.53
2023-02-02T23:32:29.400Z,0.80
2023-02-02T23:34:56.235Z,0.80
2023-02-02T23:37:23.045Z,0.87
2023-02-02T23:39:49.887Z,0.87
2023-02-02T23:42:16.773Z,0.90
2023-02-02T23:44:43.792Z,0.83
2023-02-02T23:47:12.088Z,0.60
2023-02-02T23:49:39.123Z,0.80
2023-02-02T23:52:06.904Z,1.13
2023-02-02T23:54:34.488Z,0.97
2023-02-02T23:57:02.188Z,0.90
2023-02-02T23:59:29.157Z,0.80
